Time;durP1;ratioP1;P1;durP2;ratioP2;P2;SDS_P1;SDS_P2;PMS_P1;PMS_P2;Temp;Humidity;BMP_temperature;BMP_pressure;BME280_temperature;BME280_humidity;BME280_pressure;Samples;Min_cycle;Max_cycle;Signal;HPM_P1;HPM_P2
2022/01/09 00:01:21;;;;;;;;;;;4.60;99.90;;;;;;5115597;28;19923;-51
2022/01/09 00:03:48;;;;;;;;;;;4.70;99.90;;;;;;5102450;28;19971;-51
2022/01/09 00:06:16;;;;;;;;;;;4.70;99.90;;;;;;5098200;28;19924;-50
2022/01/09 00:08:44;;;;;;;;;;;5.10;99.90;;;;;;5105027;28;20385;-50
2022/01/09 00:11:10;;;;;;;;;;;5.60;99.90;;;;;;5089367;28;19924;-51
2022/01/09 00:13:37;;;;;;;;;;;5.80;99.90;;;;;;5102819;28;20444;-50
2022/01/09 00:16:04;;;;;;;;;;;6.00;99.90;;;;;;5095066;28;19928;-51
2022/01/09 00:18:31;;;;;;;;;;;6.00;99.90;;;;;;5097068;28;19928;-50
2022/01/09 00:20:58;;;;;;;;;;;6.20;99.90;;;;;;5095212;28;19924;-51
2022/01/09 00:23:26;;;;;;;;;;;6.30;99.90;;;;;;5095047;28;19928;-50
2022/01/09 00:25:53;;;;;;;;;;;6.30;99.90;;;;;;5096478;28;20023;-48
2022/01/09 00:28:20;;;;;;;;;;;6.30;99.90;;;;;;5094786;28;19950;-51
2022/01/09 00:30:46;;;;;;;;;;;6.30;99.90;;;;;;5091670;28;19925;-51
2022/01/09 00:33:13;;;;;;;;;;;6.30;99.90;;;;;;5125954;22;20012;-51
2022/01/09 00:35:40;;;;;;;;;;;6.40;99.90;;;;;;5116237;28;19924;-53
2022/01/09 00:38:06;;;;;;;;;;;6.40;99.90;;;;;;5115279;28;19976;-50
2022/01/09 00:40:35;;;;;;;;;;;6.40;99.90;;;;;;5112063;28;19977;-50
2022/01/09 00:43:01;;;;;;;;;;;6.30;99.90;;;;;;5108486;28;19924;-51
2022/01/09 00:45:28;;;;;;;;;;;6.30;99.90;;;;;;5095952;28;19924;-50
2022/01/09 00:47:58;;;;;;;;;;;6.40;99.90;;;;;;5095414;28;19924;-51
2022/01/09 00:50:25;;;;;;;;;;;6.40;99.90;;;;;;5095574;28;19931;-51
2022/01/09 00:52:55;;;;;;;;;;;6.40;99.90;;;;;;5096032;28;19924;-52
2022/01/09 00:55:21;;;;;;;;;;;6.30;99.90;;;;;;5096128;28;19990;-52
2022/01/09 00:57:50;;;;;;;;;;;6.40;99.90;;;;;;5095351;28;19985;-51
2022/01/09 01:00:16;;;;;;;;;;;6.50;99.90;;;;;;5094299;28;19924;-51
2022/01/09 01:02:43;;;;;;;;;;;6.50;99.90;;;;;;5095401;28;20435;-52
2022/01/09 01:05:10;;;;;;;;;;;6.50;99.90;;;;;;5095400;28;19977;-51
2022/01/09 01:07:37;;;;;;;;;;;6.40;99.90;;;;;;5095320;28;19924;-51
2022/01/09 01:10:04;;;;;;;;;;;6.30;99.90;;;;;;5095624;28;19990;-51
2022/01/09 01:12:31;;;;;;;;;;;6.30;99.90;;;;;;5095718;28;19978;-51
2022/01/09 01:15:00;;;;;;;;;;;6.20;99.90;;;;;;5095163;28;19924;-51
2022/01/09 01:17:27;;;;;;;;;;;6.00;99.90;;;;;;5086298;28;19986;-51
2022/01/09 01:19:54;;;;;;;;;;;6.00;99.90;;;;;;5094945;28;19969;-52
2022/01/09 01:22:21;;;;;;;;;;;5.90;99.90;;;;;;5095110;28;19924;-52
2022/01/09 01:24:48;;;;;;;;;;;5.80;99.90;;;;;;5095495;28;19924;-51
2022/01/09 01:27:14;;;;;;;;;;;5.80;99.90;;;;;;5095505;28;19928;-52
2022/01/09 01:29:41;;;;;;;;;;;5.80;99.90;;;;;;5094701;28;19972;-51
2022/01/09 01:32:09;;;;;;;;;;;5.70;99.90;;;;;;5094964;28;19924;-52
2022/01/09 01:34:36;;;;;;;;;;;5.70;99.90;;;;;;5096767;28;19985;-51
2022/01/09 01:37:03;;;;;;;;;;;5.60;99.90;;;;;;5095325;28;19924;-52
2022/01/09 01:39:30;;;;;;;;;;;5.50;99.90;;;;;;5094124;28;19924;-51
2022/01/09 01:41:57;;;;;;;;;;;5.50;99.90;;;;;;5095043;28;19969;-51
2022/01/09 01:44:24;;;;;;;;;;;5.50;99.90;;;;;;5094710;28;19928;-52
2022/01/09 01:46:51;;;;;;;;;;;5.40;99.90;;;;;;5093927;28;19924;-52
2022/01/09 01:49:19;;;;;;;;;;;5.30;99.90;;;;;;5095028;28;20382;-52
2022/01/09 01:51:46;;;;;;;;;;;5.30;99.90;;;;;;5104492;28;19930;-51
2022/01/09 01:54:14;;;;;;;;;;;5.30;99.90;;;;;;5111866;28;20618;-51
2022/01/09 01:56:41;;;;;;;;;;;5.40;99.90;;;;;;5094314;28;19925;-51
2022/01/09 01:59:08;;;;;;;;;;;5.40;99.90;;;;;;5093860;28;19924;-51
2022/01/09 02:01:36;;;;;;;;;;;5.50;99.90;;;;;;5093811;28;20381;-52
2022/01/09 02:04:03;;;;;;;;;;;5.50;99.90;;;;;;5093741;28;20345;-51
2022/01/09 02:06:32;;;;;;;;;;;5.60;99.90;;;;;;5106852;28;19924;-52
2022/01/09 02:08:59;;;;;;;;;;;5.60;99.90;;;;;;5110934;28;20434;-51
2022/01/09 02:11:25;;;;;;;;;;;5.70;99.90;;;;;;5092614;28;19948;-52
2022/01/09 02:13:52;;;;;;;;;;;5.70;99.90;;;;;;5093736;28;19977;-52
2022/01/09 02:16:19;;;;;;;;;;;5.70;99.90;;;;;;5093607;28;19931;-52
2022/01/09 02:18:46;;;;;;;;;;;5.80;99.90;;;;;;5093269;28;20447;-52
2022/01/09 02:21:14;;;;;;;;;;;5.70;99.90;;;;;;5095662;28;19923;-51
2022/01/09 02:23:45;;;;;;;;;;;5.80;99.90;;;;;;5094311;28;20385;-51
2022/01/09 02:26:11;;;;;;;;;;;5.80;99.90;;;;;;5094313;28;19924;-52
2022/01/09 02:28:38;;;;;;;;;;;6.00;99.90;;;;;;5094018;28;19924;-52
2022/01/09 02:31:05;;;;;;;;;;;6.10;99.90;;;;;;5094994;28;21293;-52
2022/01/09 02:33:32;;;;;;;;;;;6.10;99.90;;;;;;5094623;28;19932;-52
2022/01/09 02:35:58;;;;;;;;;;;6.20;99.90;;;;;;5114104;28;19969;-52
2022/01/09 02:38:27;;;;;;;;;;;6.30;99.90;;;;;;5114019;28;19943;-52
2022/01/09 02:40:54;;;;;;;;;;;6.40;99.90;;;;;;5094308;28;19924;-52
2022/01/09 02:43:21;;;;;;;;;;;6.40;99.90;;;;;;5093776;28;19981;-52
2022/01/09 02:45:53;;;;;;;;;;;6.40;99.90;;;;;;5094042;28;20446;-52
2022/01/09 02:48:20;;;;;;;;;;;6.40;99.90;;;;;;5093809;28;19930;-52
2022/01/09 02:50:59;;;;;;;;;;;6.50;99.90;;;;;;5093979;28;20308;-53
2022/01/09 02:53:30;;;;;;;;;;;6.40;99.90;;;;;;5093730;28;20370;-52
2022/01/09 02:55:56;;;;;;;;;;;6.40;99.90;;;;;;5093448;28;19935;-52
2022/01/09 02:58:23;;;;;;;;;;;6.30;99.90;;;;;;5093405;28;19928;-52
2022/01/09 03:00:50;;;;;;;;;;;6.30;99.90;;;;;;5092868;28;19924;-52
2022/01/09 03:03:17;;;;;;;;;;;6.20;99.90;;;;;;5092940;28;20386;-52
2022/01/09 03:05:43;;;;;;;;;;;6.20;99.90;;;;;;5095435;28;20336;-52
2022/01/09 03:08:10;;;;;;;;;;;6.20;99.90;;;;;;5093037;28;19977;-52
2022/01/09 03:10:38;;;;;;;;;;;6.20;99.90;;;;;;5093270;28;19924;-52
2022/01/09 03:13:06;;;;;;;;;;;6.20;99.90;;;;;;5093921;28;19928;-52
2022/01/09 03:15:33;;;;;;;;;;;6.10;99.90;;;;;;5093203;28;19924;-52
2022/01/09 03:18:00;;;;;;;;;;;6.00;99.90;;;;;;5092845;28;19924;-52
2022/01/09 03:20:28;;;;;;;;;;;6.00;99.90;;;;;;5093212;28;19924;-52
2022/01/09 03:22:55;;;;;;;;;;;6.00;99.90;;;;;;5093216;28;19924;-52
2022/01/09 03:25:22;;;;;;;;;;;6.00;99.90;;;;;;5096558;28;19963;-52
2022/01/09 03:27:50;;;;;;;;;;;6.00;99.90;;;;;;5093323;28;19928;-52
2022/01/09 03:30:17;;;;;;;;;;;5.90;99.90;;;;;;5093973;28;19928;-52
2022/01/09 03:32:44;;;;;;;;;;;5.90;99.90;;;;;;5095194;28;19924;-52
2022/01/09 03:35:12;;;;;;;;;;;6.00;99.90;;;;;;5097497;28;19977;-52
2022/01/09 03:37:39;;;;;;;;;;;6.00;99.90;;;;;;5093379;28;19978;-53
2022/01/09 03:40:07;;;;;;;;;;;6.10;99.90;;;;;;5092416;28;19987;-52
2022/01/09 03:42:34;;;;;;;;;;;5.90;99.90;;;;;;5093161;28;19924;-52
2022/01/09 03:45:02;;;;;;;;;;;5.70;99.90;;;;;;5092999;28;20374;-53
2022/01/09 03:47:29;;;;;;;;;;;5.40;99.90;;;;;;5093454;28;19924;-52
2022/01/09 03:49:55;;;;;;;;;;;5.30;99.90;;;;;;5092792;28;19928;-52
2022/01/09 03:52:27;;;;;;;;;;;5.10;99.90;;;;;;5093835;28;19928;-52
2022/01/09 03:54:54;;;;;;;;;;;5.10;99.90;;;;;;5093021;28;19925;-52
2022/01/09 03:57:21;;;;;;;;;;;5.00;99.90;;;;;;5104149;28;19924;-51
2022/01/09 03:59:47;;;;;;;;;;;4.90;99.90;;;;;;5106109;28;19924;-52
2022/01/09 04:02:16;;;;;;;;;;;4.80;99.90;;;;;;5106994;28;19924;-52
2022/01/09 04:04:43;;;;;;;;;;;4.70;99.90;;;;;;5103299;28;20363;-52
2022/01/09 04:07:10;;;;;;;;;;;4.70;99.90;;;;;;5094972;28;19924;-52
2022/01/09 04:09:40;;;;;;;;;;;4.70;99.90;;;;;;5093367;28;19924;-52
2022/01/09 04:12:14;;;;;;;;;;;4.60;99.90;;;;;;5093413;28;19924;-52
2022/01/09 04:14:42;;;;;;;;;;;4.60;99.90;;;;;;5093346;28;20010;-52
2022/01/09 04:17:14;;;;;;;;;;;4.60;99.90;;;;;;5092683;28;19932;-52
2022/01/09 04:19:45;;;;;;;;;;;4.50;99.90;;;;;;5092107;28;19924;-52
2022/01/09 04:22:12;;;;;;;;;;;4.50;99.90;;;;;;5092709;28;19997;-52
2022/01/09 04:24:38;;;;;;;;;;;4.50;99.90;;;;;;5092389;28;19981;-52
2022/01/09 04:27:06;;;;;;;;;;;4.40;99.90;;;;;;5092864;28;19924;-52
2022/01/09 04:29:32;;;;;;;;;;;4.50;99.90;;;;;;5091793;28;19977;-53
2022/01/09 04:35:04;;;;;;;;;;;4.50;99.90;;;;;;5094597;28;19923;-52
2022/01/09 04:37:33;;;;;;;;;;;4.50;99.90;;;;;;5089827;28;20302;-52
2022/01/09 04:39:59;;;;;;;;;;;4.50;99.90;;;;;;5093149;28;20421;-51
2022/01/09 04:42:32;;;;;;;;;;;4.50;99.90;;;;;;5097117;28;19924;-52
2022/01/09 04:44:59;;;;;;;;;;;4.40;99.90;;;;;;5090396;28;20369;-52
2022/01/09 04:47:26;;;;;;;;;;;4.50;99.90;;;;;;5097698;28;19978;-52
2022/01/09 04:49:52;;;;;;;;;;;4.50;99.90;;;;;;5098559;28;19928;-52
2022/01/09 04:55:24;;;;;;;;;;;4.40;99.90;;;;;;5109357;28;19919;-52
2022/01/09 04:57:54;;;;;;;;;;;4.30;99.90;;;;;;5110714;28;19924;-52
2022/01/09 05:00:21;;;;;;;;;;;4.20;99.90;;;;;;5111888;28;19967;-52
2022/01/09 05:02:47;;;;;;;;;;;4.10;99.90;;;;;;5112028;28;20351;-53
2022/01/09 05:05:15;;;;;;;;;;;4.00;99.90;;;;;;5098118;28;19924;-52
2022/01/09 05:07:42;;;;;;;;;;;3.90;99.90;;;;;;5095545;28;19928;-52
2022/01/09 05:10:10;;;;;;;;;;;3.80;99.90;;;;;;5094230;28;20389;-52
2022/01/09 05:12:38;;;;;;;;;;;3.80;99.90;;;;;;5094975;28;20367;-52
2022/01/09 05:15:06;;;;;;;;;;;3.70;99.90;;;;;;5095115;28;19969;-52
2022/01/09 05:17:33;;;;;;;;;;;3.60;99.90;;;;;;5095155;28;19985;-52
2022/01/09 05:20:00;;;;;;;;;;;3.60;99.90;;;;;;5094901;28;19924;-52
2022/01/09 05:22:27;;;;;;;;;;;3.70;99.90;;;;;;5094813;28;19924;-52
2022/01/09 05:24:55;;;;;;;;;;;3.60;99.90;;;;;;5094538;28;20378;-52
2022/01/09 05:27:21;;;;;;;;;;;3.60;99.90;;;;;;5095020;28;19928;-52
2022/01/09 05:29:49;;;;;;;;;;;3.60;99.90;;;;;;5094898;28;19970;-52
2022/01/09 05:32:16;;;;;;;;;;;3.50;99.90;;;;;;5094739;28;19981;-52
2022/01/09 05:34:43;;;;;;;;;;;3.50;99.90;;;;;;5095035;28;19924;-52
2022/01/09 05:37:10;;;;;;;;;;;3.40;99.90;;;;;;5094699;28;19924;-52
2022/01/09 05:39:36;;;;;;;;;;;3.30;99.90;;;;;;5076597;28;19929;-52
2022/01/09 05:42:04;;;;;;;;;;;3.30;99.90;;;;;;5074198;28;19986;-52
2022/01/09 05:44:32;;;;;;;;;;;3.20;99.90;;;;;;5086572;28;19927;-52
2022/01/09 05:47:00;;;;;;;;;;;3.20;99.90;;;;;;5094301;28;19925;-52
2022/01/09 05:49:27;;;;;;;;;;;3.20;99.90;;;;;;5094724;28;19928;-52
2022/01/09 05:51:54;;;;;;;;;;;3.20;99.90;;;;;;5094362;28;19924;-52
2022/01/09 05:54:21;;;;;;;;;;;3.10;99.90;;;;;;5093976;28;20615;-53
2022/01/09 05:56:48;;;;;;;;;;;3.10;99.90;;;;;;5094390;28;19985;-52
2022/01/09 05:59:15;;;;;;;;;;;3.10;99.90;;;;;;5093994;28;19970;-52
2022/01/09 06:01:41;;;;;;;;;;;3.10;99.90;;;;;;5094085;28;19939;-52
2022/01/09 06:04:09;;;;;;;;;;;3.10;99.90;;;;;;5094059;28;20454;-52
2022/01/09 06:06:36;;;;;;;;;;;3.10;99.90;;;;;;5094331;28;19931;-52
2022/01/09 06:09:03;;;;;;;;;;;3.10;99.90;;;;;;5094188;28;19970;-52
2022/01/09 06:11:30;;;;;;;;;;;3.10;99.90;;;;;;5094122;28;19974;-52
2022/01/09 06:13:57;;;;;;;;;;;2.90;99.90;;;;;;5093940;28;19969;-52
2022/01/09 06:16:24;;;;;;;;;;;2.90;99.90;;;;;;5093498;28;19954;-52
2022/01/09 06:18:50;;;;;;;;;;;3.00;99.90;;;;;;5093783;28;19932;-52
2022/01/09 06:21:19;;;;;;;;;;;3.00;99.90;;;;;;5094050;28;19928;-52
2022/01/09 06:23:46;;;;;;;;;;;2.90;99.90;;;;;;5093718;28;19924;-52
2022/01/09 06:26:12;;;;;;;;;;;2.90;99.90;;;;;;5093696;28;19924;-51
2022/01/09 06:28:39;;;;;;;;;;;2.90;99.90;;;;;;5093690;28;19977;-51
2022/01/09 06:31:06;;;;;;;;;;;2.90;99.90;;;;;;5094245;28;20563;-51
2022/01/09 06:33:33;;;;;;;;;;;2.90;99.90;;;;;;5112853;22;19932;-53
2022/01/09 06:35:59;;;;;;;;;;;2.90;99.90;;;;;;5092443;28;19931;-53
2022/01/09 06:38:28;;;;;;;;;;;2.90;99.90;;;;;;5091831;28;19928;-54
2022/01/09 06:40:54;;;;;;;;;;;2.90;99.90;;;;;;5092153;28;19928;-53
2022/01/09 06:43:21;;;;;;;;;;;2.90;99.90;;;;;;5092407;28;19932;-53
2022/01/09 06:45:48;;;;;;;;;;;2.80;99.90;;;;;;5092223;28;19977;-53
2022/01/09 06:48:15;;;;;;;;;;;2.90;99.90;;;;;;5075576;28;19985;-54
2022/01/09 06:50:41;;;;;;;;;;;2.90;99.90;;;;;;5051829;28;19970;-54
2022/01/09 06:53:08;;;;;;;;;;;2.90;99.90;;;;;;5051747;28;19925;-52
2022/01/09 06:55:36;;;;;;;;;;;2.90;99.90;;;;;;5052186;28;19955;-53
2022/01/09 06:58:03;;;;;;;;;;;3.10;99.90;;;;;;5051150;28;19925;-54
2022/01/09 07:00:30;;;;;;;;;;;3.10;99.90;;;;;;5053274;28;19925;-53
2022/01/09 07:02:56;;;;;;;;;;;3.10;99.90;;;;;;5054321;28;20007;-52
2022/01/09 07:05:23;;;;;;;;;;;3.10;99.90;;;;;;5092008;28;19924;-54
2022/01/09 07:07:50;;;;;;;;;;;3.20;99.90;;;;;;5091688;28;19924;-52
2022/01/09 07:10:17;;;;;;;;;;;3.30;99.90;;;;;;5091879;28;20455;-53
2022/01/09 07:12:45;;;;;;;;;;;3.30;99.90;;;;;;5091758;28;20293;-53
2022/01/09 07:15:12;;;;;;;;;;;3.40;99.90;;;;;;5078872;28;19993;-52
2022/01/09 07:17:39;;;;;;;;;;;3.40;99.90;;;;;;5072173;28;19970;-52
2022/01/09 07:20:06;;;;;;;;;;;3.40;99.90;;;;;;5072533;28;20386;-53
2022/01/09 07:22:33;;;;;;;;;;;3.50;99.90;;;;;;5071260;28;19978;-52
2022/01/09 07:24:59;;;;;;;;;;;3.50;99.90;;;;;;5088115;28;20285;-54
2022/01/09 07:27:26;;;;;;;;;;;3.50;99.90;;;;;;5090901;28;19977;-52
2022/01/09 07:29:54;;;;;;;;;;;3.60;99.90;;;;;;5053674;28;19943;-52
2022/01/09 07:32:21;;;;;;;;;;;3.60;99.90;;;;;;5071247;28;20330;-52
2022/01/09 07:34:48;;;;;;;;;;;3.50;99.90;;;;;;5072503;28;19978;-52
2022/01/09 07:37:14;;;;;;;;;;;3.50;99.90;;;;;;5071842;28;19986;-52
2022/01/09 07:39:41;;;;;;;;;;;3.50;99.90;;;;;;5071058;28;19925;-52
2022/01/09 07:42:08;;;;;;;;;;;3.40;99.90;;;;;;5065672;28;19986;-52
2022/01/09 07:44:35;;;;;;;;;;;3.40;99.90;;;;;;5069436;28;19925;-51
2022/01/09 07:47:03;;;;;;;;;;;3.50;99.90;;;;;;5071004;28;19925;-54
2022/01/09 07:49:30;;;;;;;;;;;3.60;99.90;;;;;;5070641;28;19998;-53
2022/01/09 07:51:56;;;;;;;;;;;3.70;99.90;;;;;;5081376;28;19928;-52
2022/01/09 07:54:23;;;;;;;;;;;3.70;99.90;;;;;;5076930;28;20348;-53
2022/01/09 07:56:52;;;;;;;;;;;3.80;99.90;;;;;;5068648;28;20267;-54
2022/01/09 07:59:19;;;;;;;;;;;3.80;99.90;;;;;;5064607;28;19954;-52
2022/01/09 08:01:45;;;;;;;;;;;3.70;99.90;;;;;;5069548;28;19924;-52
2022/01/09 08:04:13;;;;;;;;;;;3.60;99.90;;;;;;5064197;28;19924;-53
2022/01/09 08:06:40;;;;;;;;;;;3.50;99.90;;;;;;5067280;28;20340;-53
2022/01/09 08:09:07;;;;;;;;;;;3.50;99.90;;;;;;5069974;28;19998;-53
2022/01/09 08:11:34;;;;;;;;;;;3.50;99.90;;;;;;5066369;28;20553;-51
2022/01/09 08:23:11;;;;;;;;;;;3.40;99.90;;;;;;5065627;28;20327;-52
2022/01/09 08:25:38;;;;;;;;;;;3.30;99.90;;;;;;5074929;28;19928;-52
2022/01/09 08:28:05;;;;;;;;;;;3.40;99.90;;;;;;5074550;28;19924;-53
2022/01/09 08:30:32;;;;;;;;;;;3.40;99.90;;;;;;5073808;28;19970;-52
2022/01/09 08:32:59;;;;;;;;;;;3.40;99.90;;;;;;5073034;28;20382;-52
2022/01/09 08:35:26;;;;;;;;;;;3.40;99.90;;;;;;5074186;28;19998;-52
2022/01/09 08:37:53;;;;;;;;;;;3.50;99.90;;;;;;5073680;28;19925;-56
2022/01/09 08:40:22;;;;;;;;;;;3.60;99.90;;;;;;5073505;28;20249;-52
2022/01/09 08:42:49;;;;;;;;;;;3.60;99.90;;;;;;5055005;28;20414;-54
2022/01/09 08:45:17;;;;;;;;;;;3.70;99.90;;;;;;5074212;28;20290;-53
2022/01/09 08:47:43;;;;;;;;;;;3.80;99.90;;;;;;5074203;28;20440;-53
2022/01/09 08:50:11;;;;;;;;;;;3.90;99.90;;;;;;5073185;28;19931;-52
2022/01/09 08:52:38;;;;;;;;;;;4.00;99.90;;;;;;5074150;28;19925;-52
2022/01/09 08:55:06;;;;;;;;;;;4.00;99.90;;;;;;5074642;28;19978;-53
2022/01/09 08:57:34;;;;;;;;;;;4.10;99.90;;;;;;5074686;28;19928;-51
2022/01/09 09:00:01;;;;;;;;;;;4.10;99.90;;;;;;5070488;28;19929;-52
2022/01/09 09:02:27;;;;;;;;;;;4.10;99.90;;;;;;5071702;28;19935;-53
2022/01/09 09:04:54;;;;;;;;;;;4.10;99.90;;;;;;5073168;28;19985;-52
2022/01/09 09:07:24;;;;;;;;;;;4.20;99.90;;;;;;5073354;28;20448;-52
2022/01/09 09:09:51;;;;;;;;;;;4.20;99.90;;;;;;5072910;28;19931;-54
2022/01/09 09:12:18;;;;;;;;;;;4.30;99.90;;;;;;5073773;28;19998;-53
2022/01/09 09:14:48;;;;;;;;;;;4.20;99.90;;;;;;5074029;28;20385;-52
2022/01/09 09:17:15;;;;;;;;;;;4.20;99.90;;;;;;5072561;28;20011;-52
2022/01/09 09:19:42;;;;;;;;;;;4.30;99.90;;;;;;5072139;28;19924;-53
2022/01/09 09:22:08;;;;;;;;;;;4.40;99.90;;;;;;5072792;28;19930;-51
2022/01/09 09:24:36;;;;;;;;;;;4.50;99.90;;;;;;5073114;28;20279;-51
2022/01/09 09:27:02;;;;;;;;;;;4.50;99.90;;;;;;5073701;28;20434;-50
2022/01/09 09:29:29;;;;;;;;;;;4.60;99.90;;;;;;5072975;28;19924;-50
2022/01/09 09:31:57;;;;;;;;;;;4.60;99.90;;;;;;5073265;28;19924;-51
2022/01/09 09:34:24;;;;;;;;;;;4.60;99.90;;;;;;5071511;28;19954;-51
2022/01/09 09:36:52;;;;;;;;;;;4.70;99.90;;;;;;5072904;28;19932;-50
2022/01/09 09:39:19;;;;;;;;;;;4.80;99.90;;;;;;5073677;28;20027;-51
2022/01/09 09:41:46;;;;;;;;;;;4.90;99.90;;;;;;5073516;28;19925;-53
2022/01/09 09:44:13;;;;;;;;;;;5.00;99.90;;;;;;5073309;28;19978;-51
2022/01/09 09:46:40;;;;;;;;;;;5.20;99.90;;;;;;5073393;28;20385;-51
2022/01/09 09:49:08;;;;;;;;;;;5.40;99.90;;;;;;5074732;28;19978;-51
2022/01/09 09:51:35;;;;;;;;;;;5.60;99.90;;;;;;5069450;28;19932;-51
2022/01/09 09:54:02;;;;;;;;;;;5.90;99.90;;;;;;5070713;28;19928;-51
2022/01/09 09:56:29;;;;;;;;;;;6.10;99.90;;;;;;5072290;28;19999;-52
2022/01/09 09:58:59;;;;;;;;;;;6.00;99.90;;;;;;5072868;28;19971;-50
2022/01/09 10:01:27;;;;;;;;;;;6.10;99.90;;;;;;5072239;28;20203;-52
2022/01/09 10:03:54;;;;;;;;;;;6.00;99.90;;;;;;5072809;28;20354;-51
2022/01/09 10:06:35;;;;;;;;;;;6.00;99.90;;;;;;5072450;28;19928;-52
2022/01/09 10:09:06;;;;;;;;;;;5.80;99.90;;;;;;5072711;28;20007;-51
2022/01/09 10:11:41;;;;;;;;;;;5.90;99.90;;;;;;5072152;28;20021;-53
2022/01/09 10:14:11;;;;;;;;;;;5.90;99.90;;;;;;5066276;28;20457;-52
2022/01/09 10:16:38;;;;;;;;;;;5.90;99.90;;;;;;5068915;28;19933;-51
2022/01/09 10:19:05;;;;;;;;;;;5.70;99.90;;;;;;5072262;28;19971;-53
2022/01/09 10:21:32;;;;;;;;;;;5.60;99.90;;;;;;5072293;28;20035;-52
2022/01/09 10:24:04;;;;;;;;;;;5.90;99.90;;;;;;5072027;28;19928;-51
2022/01/09 10:26:32;;;;;;;;;;;6.30;99.90;;;;;;5067088;28;19924;-52
2022/01/09 10:28:59;;;;;;;;;;;6.50;99.90;;;;;;5059155;28;19925;-54
2022/01/09 10:31:28;;;;;;;;;;;6.70;99.90;;;;;;5064447;28;20467;-52
2022/01/09 10:33:59;;;;;;;;;;;6.70;99.90;;;;;;5091514;28;19971;-51
2022/01/09 10:36:37;;;;;;;;;;;6.60;99.90;;;;;;5092250;28;19969;-52
2022/01/09 10:39:06;;;;;;;;;;;6.70;99.90;;;;;;5091997;28;19924;-55
2022/01/09 10:41:46;;;;;;;;;;;7.30;99.90;;;;;;5080449;28;19924;-51
2022/01/09 10:44:16;;;;;;;;;;;7.50;99.90;;;;;;5071185;28;19931;-52
2022/01/09 10:46:52;;;;;;;;;;;7.40;99.90;;;;;;5071688;28;19924;-51
2022/01/09 10:49:19;;;;;;;;;;;7.10;99.90;;;;;;5071383;28;19970;-52
2022/01/09 10:51:46;;;;;;;;;;;6.80;99.90;;;;;;5071605;28;19925;-54
2022/01/09 10:54:27;;;;;;;;;;;6.80;99.90;;;;;;5071708;28;19932;-51
2022/01/09 10:57:09;;;;;;;;;;;6.80;99.90;;;;;;5071787;28;19987;-53
2022/01/09 10:59:35;;;;;;;;;;;6.40;99.90;;;;;;5068885;28;19994;-55
2022/01/09 11:02:02;;;;;;;;;;;6.00;99.90;;;;;;5069647;28;20220;-52
2022/01/09 11:04:30;;;;;;;;;;;6.00;99.90;;;;;;5069030;28;19981;-51
2022/01/09 11:06:56;;;;;;;;;;;6.10;99.90;;;;;;5069869;28;19962;-53
2022/01/09 11:09:27;;;;;;;;;;;6.20;99.90;;;;;;5071112;28;19970;-51
2022/01/09 11:11:54;;;;;;;;;;;6.70;99.90;;;;;;5069469;28;19939;-54
2022/01/09 11:14:23;;;;;;;;;;;7.10;99.90;;;;;;5065527;28;19928;-52
2022/01/09 11:16:51;;;;;;;;;;;7.30;99.90;;;;;;5069539;28;19928;-53
2022/01/09 11:19:18;;;;;;;;;;;7.30;99.90;;;;;;5071052;28;19925;-54
2022/01/09 11:21:46;;;;;;;;;;;7.30;99.90;;;;;;5068231;28;19977;-52
2022/01/09 11:24:25;;;;;;;;;;;7.10;99.90;;;;;;5070640;28;20341;-54
2022/01/09 11:26:54;;;;;;;;;;;7.00;99.90;;;;;;5057415;28;20383;-53
2022/01/09 11:29:29;;;;;;;;;;;7.00;99.90;;;;;;5070349;28;19978;-52
2022/01/09 11:32:00;;;;;;;;;;;6.50;99.90;;;;;;5051090;28;19925;-52
2022/01/09 11:34:32;;;;;;;;;;;6.40;99.90;;;;;;5064732;28;20069;-52
2022/01/09 11:37:14;;;;;;;;;;;6.60;99.90;;;;;;5070823;28;19936;-53
2022/01/09 11:39:43;;;;;;;;;;;6.80;99.90;;;;;;5070012;28;19986;-53
2022/01/09 11:42:12;;;;;;;;;;;6.60;99.90;;;;;;5064603;28;19925;-51
2022/01/09 11:44:46;;;;;;;;;;;6.50;99.90;;;;;;5058431;28;20370;-52
2022/01/09 11:47:13;;;;;;;;;;;6.70;99.90;;;;;;5074775;28;20313;-53
2022/01/09 11:49:40;;;;;;;;;;;6.80;99.90;;;;;;5074098;28;19928;-53
2022/01/09 11:52:08;;;;;;;;;;;6.40;99.90;;;;;;5075143;28;19924;-53
2022/01/09 11:54:48;;;;;;;;;;;6.10;99.90;;;;;;5069437;28;19929;-52
2022/01/09 11:57:20;;;;;;;;;;;6.00;99.90;;;;;;5072481;28;20023;-53
2022/01/09 11:59:51;;;;;;;;;;;5.90;99.90;;;;;;5074127;28;19931;-51
2022/01/09 12:02:35;;;;;;;;;;;5.90;99.90;;;;;;5068767;28;19939;-53
2022/01/09 12:05:03;;;;;;;;;;;6.00;99.90;;;;;;5058275;28;19940;-51
2022/01/09 12:08:04;;;;;;;;;;;6.10;99.90;;;;;;5074074;28;19989;-54
2022/01/09 12:10:32;;;;;;;;;;;6.10;99.90;;;;;;5073481;28;19971;-51
2022/01/09 12:13:01;;;;;;;;;;;5.90;99.90;;;;;;5073819;28;19935;-51
2022/01/09 12:15:35;;;;;;;;;;;6.00;99.90;;;;;;5074108;28;19931;-54
2022/01/09 12:18:03;;;;;;;;;;;5.90;99.90;;;;;;5070791;28;19932;-53
2022/01/09 12:20:37;;;;;;;;;;;5.90;99.90;;;;;;5084112;28;20394;-53
2022/01/09 12:23:05;;;;;;;;;;;6.00;99.90;;;;;;5073700;28;20456;-51
2022/01/09 12:25:42;;;;;;;;;;;5.90;99.90;;;;;;5072014;28;20402;-53
2022/01/09 12:28:11;;;;;;;;;;;6.00;99.90;;;;;;5066986;28;19928;-51
2022/01/09 12:30:52;;;;;;;;;;;6.10;99.90;;;;;;5071421;28;19931;-53
2022/01/09 12:33:38;;;;;;;;;;;6.30;99.90;;;;;;5073313;28;20014;-55
2022/01/09 12:36:06;;;;;;;;;;;6.60;99.90;;;;;;5073236;28;19928;-51
2022/01/09 12:38:34;;;;;;;;;;;6.70;99.90;;;;;;5071730;28;19978;-53
2022/01/09 12:41:01;;;;;;;;;;;6.90;99.90;;;;;;5073867;28;19924;-52
2022/01/09 12:43:30;;;;;;;;;;;6.80;99.90;;;;;;5073825;28;19986;-53
2022/01/09 12:45:57;;;;;;;;;;;6.80;99.90;;;;;;5073635;28;19974;-52
2022/01/09 12:48:26;;;;;;;;;;;7.00;99.90;;;;;;5068874;28;19924;-50
2022/01/09 12:50:53;;;;;;;;;;;7.00;99.90;;;;;;5073831;28;19986;-52
2022/01/09 12:53:21;;;;;;;;;;;6.90;99.90;;;;;;5074092;28;20464;-51
2022/01/09 12:55:58;;;;;;;;;;;6.70;99.90;;;;;;5073078;28;19978;-50
2022/01/09 12:58:25;;;;;;;;;;;6.50;99.90;;;;;;5073633;28;19928;-53
2022/01/09 13:00:53;;;;;;;;;;;6.30;99.90;;;;;;5069731;28;19970;-53
2022/01/09 13:03:21;;;;;;;;;;;6.00;99.90;;;;;;5072377;28;20294;-52
2022/01/09 13:05:54;;;;;;;;;;;5.90;99.90;;;;;;5074030;28;19986;-51
2022/01/09 13:08:21;;;;;;;;;;;5.80;99.90;;;;;;5072469;28;19936;-52
2022/01/09 13:10:56;;;;;;;;;;;5.90;99.90;;;;;;5073711;28;19929;-52
2022/01/09 13:13:26;;;;;;;;;;;5.90;99.90;;;;;;5072221;28;19928;-52
2022/01/09 13:15:55;;;;;;;;;;;5.80;99.90;;;;;;5072707;28;19925;-54
2022/01/09 13:18:35;;;;;;;;;;;5.80;99.90;;;;;;5072896;28;20401;-52
2022/01/09 13:21:16;;;;;;;;;;;5.80;99.90;;;;;;5073515;28;20011;-52
2022/01/09 13:23:59;;;;;;;;;;;5.70;99.90;;;;;;5095028;22;19925;-51
2022/01/09 13:26:27;;;;;;;;;;;5.70;99.90;;;;;;5073578;28;20390;-51
2022/01/09 13:28:54;;;;;;;;;;;5.60;99.90;;;;;;5071320;28;19974;-53
2022/01/09 13:31:23;;;;;;;;;;;5.70;99.90;;;;;;5073780;28;19929;-53
2022/01/09 13:33:54;;;;;;;;;;;5.70;99.90;;;;;;5075454;28;19928;-54
2022/01/09 13:36:31;;;;;;;;;;;5.80;99.90;;;;;;5072453;28;19931;-51
2022/01/09 13:38:58;;;;;;;;;;;5.70;99.90;;;;;;5068515;28;20447;-52
2022/01/09 13:41:28;;;;;;;;;;;5.60;99.90;;;;;;5069312;28;19924;-51
2022/01/09 13:43:55;;;;;;;;;;;5.50;99.90;;;;;;5064761;28;19932;-51
2022/01/09 13:46:24;;;;;;;;;;;5.40;99.90;;;;;;5062096;28;19936;-52
2022/01/09 13:48:51;;;;;;;;;;;5.40;99.90;;;;;;5067613;28;20014;-52
2022/01/09 13:51:18;;;;;;;;;;;5.40;99.90;;;;;;5071959;28;19931;-52
2022/01/09 13:54:01;;;;;;;;;;;5.40;99.90;;;;;;5072994;28;19970;-52
2022/01/09 13:56:28;;;;;;;;;;;5.30;99.90;;;;;;5069323;28;20386;-53
2022/01/09 13:58:55;;;;;;;;;;;5.20;99.90;;;;;;5073268;28;20386;-53
2022/01/09 14:01:37;;;;;;;;;;;5.10;99.90;;;;;;5072897;28;19936;-53
2022/01/09 14:04:11;;;;;;;;;;;5.20;99.90;;;;;;5073272;28;19936;-53
2022/01/09 14:06:38;;;;;;;;;;;5.20;99.90;;;;;;5075760;28;19925;-53
2022/01/09 14:09:06;;;;;;;;;;;5.00;99.90;;;;;;5081754;28;20356;-53
2022/01/09 14:11:33;;;;;;;;;;;4.90;99.90;;;;;;5065003;28;20351;-53
2022/01/09 14:14:00;;;;;;;;;;;4.70;99.90;;;;;;5072807;28;19928;-53
2022/01/09 14:16:32;;;;;;;;;;;4.90;99.90;;;;;;5073121;28;19928;-53
2022/01/09 14:19:00;;;;;;;;;;;4.90;99.90;;;;;;5072315;28;20049;-53
2022/01/09 14:21:28;;;;;;;;;;;4.90;99.90;;;;;;5073130;28;19925;-53
2022/01/09 14:24:05;;;;;;;;;;;4.70;99.90;;;;;;5073140;28;19924;-53
2022/01/09 14:26:31;;;;;;;;;;;4.60;99.90;;;;;;5065616;28;19979;-53
2022/01/09 14:28:58;;;;;;;;;;;4.40;99.90;;;;;;5066899;28;19925;-51
2022/01/09 14:31:26;;;;;;;;;;;4.50;99.90;;;;;;5070272;28;19937;-51
2022/01/09 14:33:54;;;;;;;;;;;4.50;99.90;;;;;;5072302;28;19925;-51
2022/01/09 14:36:21;;;;;;;;;;;4.40;99.90;;;;;;5070829;28;19931;-51
2022/01/09 14:38:50;;;;;;;;;;;4.30;99.90;;;;;;5054432;28;19924;-51
2022/01/09 14:41:18;;;;;;;;;;;4.50;99.90;;;;;;5064796;28;19981;-51
2022/01/09 14:43:44;;;;;;;;;;;4.60;99.90;;;;;;5072659;28;19936;-52
2022/01/09 14:46:12;;;;;;;;;;;4.80;99.90;;;;;;5087049;28;19973;-52
2022/01/09 14:48:40;;;;;;;;;;;4.90;99.90;;;;;;5077687;28;19932;-51
2022/01/09 14:51:09;;;;;;;;;;;5.20;99.90;;;;;;5071831;28;19924;-53
2022/01/09 14:53:36;;;;;;;;;;;5.00;99.90;;;;;;5071750;28;19978;-51